CSN3 weather

St-Jérôme Airport
St-Jérôme, Quebec, Canada

Public forecast

Using degrees Celsius for public forecast. Weather courtesy of forecast.io.

METAR (pilot weather report)

Closest report is Montreal International (Mirabel) Airport, 6.1 nm (11.4 km) S. Retrieved 2019/05/21 09:00 UTC (58 minutes ago):

CYMX 210900Z 27009G18KT 240V310 45SM SCT030 07/03 A2977 RMK SC3 SLP085

TAF (pilot weather forecast)

Closest forecast is Montreal International (Mirabel) Airport, 6.1 nm (11.4 km) S. Retrieved 2019/05/21 06:42 UTC (3 hours ago):

TAF CYMX 210538Z 2106/2206 28008KT P6SM SCT020 OVC080 TEMPO 2106/2108 BKN020 OVC080 FM210800 27008KT P6SM BKN030 TEMPO 2108/2113 BKN020 BECMG 2111/2113 29015G25KT FM211800 31015G30KT P6SM BKN050 BECMG 2122/2124 33008KT FM220300 33005KT P6SM SCT060 RMK NXT FCST BY 211200Z